Time;durP1;ratioP1;P1;durP2;ratioP2;P2;SDS_P1;SDS_P2;PMS_P1;PMS_P2;Temp;Humidity;BMP_temperature;BMP_pressure;BME280_temperature;BME280_humidity;BME280_pressure;Samples;Min_cycle;Max_cycle;Signal;HPM_P1;HPM_P2
2024/01/10 00:00:38;;;;;;;4.50;2.33;;;-4.40;99.90;;;;;;5017088;28;20497;-86
2024/01/10 00:03:04;;;;;;;5.03;2.75;;;-4.40;99.90;;;;;;5017330;28;20087;-85
2024/01/10 00:05:29;;;;;;;7.80;4.15;;;-4.40;99.90;;;;;;5017282;28;20120;-86
2024/01/10 00:07:55;;;;;;;6.32;2.25;;;-4.40;99.90;;;;;;5001124;28;20102;-83
2024/01/10 00:10:22;;;;;;;5.88;2.95;;;-4.30;99.90;;;;;;5001213;28;20041;-84
2024/01/10 00:12:48;;;;;;;6.32;2.80;;;-4.30;99.90;;;;;;5002728;28;20142;-85
2024/01/10 00:15:27;;;;;;;4.95;2.80;;;-4.30;99.90;;;;;;5016880;28;20053;-84
2024/01/10 00:17:53;;;;;;;4.15;3.15;;;-4.30;99.90;;;;;;5017209;28;20045;-84
2024/01/10 00:20:18;;;;;;;4.82;1.98;;;-4.30;99.90;;;;;;5016649;28;20046;-83
2024/01/10 00:22:44;;;;;;;4.55;2.15;;;-4.20;99.90;;;;;;5017203;28;20092;-83
2024/01/10 00:25:10;;;;;;;6.90;2.25;;;-4.20;99.90;;;;;;5016871;28;20112;-82
2024/01/10 00:27:36;;;;;;;5.38;2.70;;;-4.20;99.90;;;;;;5016912;28;20033;-83
2024/01/10 00:30:02;;;;;;;4.90;2.65;;;-4.10;99.90;;;;;;5017156;28;20034;-83
2024/01/10 00:32:28;;;;;;;5.32;2.10;;;-4.00;99.90;;;;;;5017092;28;20073;-82
2024/01/10 00:34:53;;;;;;;4.00;2.78;;;-4.00;99.90;;;;;;5021863;28;20077;-81
2024/01/10 00:37:19;;;;;;;6.57;2.72;;;-4.10;99.90;;;;;;5016259;28;20544;-82
2024/01/10 00:39:45;;;;;;;3.45;1.92;;;-4.10;99.90;;;;;;5016187;28;20053;-81
2024/01/10 00:42:11;;;;;;;5.28;3.20;;;-4.10;99.90;;;;;;5016556;28;20033;-81
2024/01/10 00:44:36;;;;;;;4.53;2.80;;;-4.10;99.90;;;;;;5016973;28;20065;-81
2024/01/10 00:47:02;;;;;;;2.83;1.92;;;-4.10;99.90;;;;;;5017037;28;20044;-81
2024/01/10 00:49:28;;;;;;;7.35;3.13;;;-4.10;99.90;;;;;;5016782;28;20473;-80
2024/01/10 00:51:54;;;;;;;9.30;4.68;;;-4.10;99.90;;;;;;4999452;28;20038;-81
2024/01/10 00:54:20;;;;;;;4.55;2.30;;;-4.10;99.90;;;;;;5016760;28;20049;-80
2024/01/10 00:56:45;;;;;;;4.50;2.75;;;-4.10;99.90;;;;;;5016301;28;20045;-80
2024/01/10 00:59:11;;;;;;;4.28;2.30;;;-4.10;99.90;;;;;;5016731;28;20072;-80
2024/01/10 01:01:37;;;;;;;6.82;2.13;;;-4.10;99.90;;;;;;5016690;28;20370;-79
2024/01/10 01:04:03;;;;;;;2.72;2.00;;;-4.20;99.90;;;;;;5016315;28;20045;-80
2024/01/10 01:06:29;;;;;;;6.45;2.85;;;-4.20;99.90;;;;;;5016230;28;20486;-80
2024/01/10 01:08:54;;;;;;;5.53;1.92;;;-4.30;99.90;;;;;;4999912;28;20038;-79
2024/01/10 01:11:20;;;;;;;10.65;3.40;;;-4.30;99.90;;;;;;5016399;28;20045;-80
2024/01/10 01:13:52;;;;;;;4.15;2.60;;;-4.40;99.90;;;;;;4999780;28;20053;-80
2024/01/10 01:16:18;;;;;;;5.75;3.75;;;-4.40;99.90;;;;;;5016270;28;20037;-80
2024/01/10 01:18:45;;;;;;;3.92;2.30;;;-4.50;99.90;;;;;;5003767;28;20371;-80
2024/01/10 01:21:14;;;;;;;4.85;2.33;;;-4.50;99.90;;;;;;4999833;28;20049;-80
2024/01/10 01:23:39;;;;;;;4.78;2.42;;;-4.60;99.90;;;;;;5016355;28;20042;-80
2024/01/10 01:26:05;;;;;;;5.20;1.80;;;-4.70;99.90;;;;;;5015684;28;20115;-80
2024/01/10 01:28:31;;;;;;;4.63;1.90;;;-4.80;99.90;;;;;;5015995;28;20030;-79
2024/01/10 01:30:57;;;;;;;3.53;2.63;;;-4.80;99.90;;;;;;5012299;28;20053;-79
2024/01/10 01:33:23;;;;;;;1.92;1.65;;;-4.90;99.90;;;;;;5016051;28;20091;-79
2024/01/10 01:35:49;;;;;;;2.55;2.10;;;-5.00;99.90;;;;;;5016037;28;20037;-79
2024/01/10 01:38:14;;;;;;;1.75;1.42;;;-5.00;99.90;;;;;;5016092;28;20485;-79
2024/01/10 01:40:40;;;;;;;2.42;1.67;;;-5.00;99.90;;;;;;5015190;28;20655;-79
2024/01/10 01:43:35;;;;;;;3.50;2.17;;;-5.00;99.90;;;;;;4999837;28;20061;-79
2024/01/10 01:46:03;;;;;;;3.80;2.22;;;-5.00;99.90;;;;;;4987467;28;20065;-78
2024/01/10 01:48:30;;;;;;;2.72;2.35;;;-5.00;99.90;;;;;;5011873;28;20040;-79
2024/01/10 01:51:02;;;;;;;3.00;2.65;;;-5.00;99.90;;;;;;5015779;28;20422;-79
2024/01/10 01:53:29;;;;;;;4.55;3.08;;;-5.10;99.90;;;;;;5011797;28;20048;-79
2024/01/10 01:55:55;;;;;;;4.13;2.85;;;-5.10;99.90;;;;;;5015379;28;20437;-78
2024/01/10 01:58:22;;;;;;;5.28;3.17;;;-5.10;99.90;;;;;;4998914;28;20041;-78
2024/01/10 02:00:48;;;;;;;2.30;1.52;;;-5.10;99.90;;;;;;5015252;28;20092;-78
2024/01/10 02:03:14;;;;;;;7.50;2.30;;;-5.10;99.90;;;;;;5014449;28;20370;-79
2024/01/10 02:05:40;;;;;;;2.67;2.45;;;-5.10;99.90;;;;;;5015251;28;20034;-78
2024/01/10 02:08:06;;;;;;;3.25;2.03;;;-5.10;99.90;;;;;;5015186;28;20125;-78
2024/01/10 02:10:32;;;;;;;1.98;1.60;;;-5.10;99.90;;;;;;5002517;28;20045;-78
2024/01/10 02:13:05;;;;;;;3.90;2.50;;;-5.10;99.90;;;;;;5015154;28;20047;-78
2024/01/10 02:15:44;;;;;;;7.93;2.28;;;-5.10;99.90;;;;;;5030983;28;20049;-77
2024/01/10 02:18:12;;;;;;;11.75;3.40;;;-5.20;99.90;;;;;;5014833;28;20041;-77
2024/01/10 02:20:38;;;;;;;8.57;2.67;;;-5.20;99.90;;;;;;5014456;28;20477;-77
2024/01/10 02:23:04;;;;;;;4.57;2.75;;;-5.10;99.90;;;;;;5002233;28;20042;-77
2024/01/10 02:25:30;;;;;;;3.10;2.80;;;-5.10;99.90;;;;;;5014897;28;20034;-77
2024/01/10 02:27:55;;;;;;;4.97;1.98;;;-5.10;99.90;;;;;;4998086;28;20474;-77
2024/01/10 02:30:21;;;;;;;3.63;2.80;;;-5.10;99.90;;;;;;5016749;28;20425;-77
2024/01/10 02:32:47;;;;;;;3.70;2.97;;;-5.10;99.90;;;;;;5021592;28;20124;-77
2024/01/10 02:35:13;;;;;;;4.10;2.63;;;-5.10;99.90;;;;;;5012482;28;20037;-77
2024/01/10 02:37:38;;;;;;;4.35;2.60;;;-5.10;99.90;;;;;;5014219;28;20041;-77
2024/01/10 02:40:05;;;;;;;6.13;3.00;;;-5.10;99.90;;;;;;5003922;28;20413;-77
2024/01/10 02:42:32;;;;;;;4.50;2.60;;;-5.10;99.90;;;;;;5011793;28;20070;-76
2024/01/10 02:44:57;;;;;;;7.10;3.25;;;-5.10;99.90;;;;;;5017971;28;20037;-76
2024/01/10 02:47:23;;;;;;;6.22;3.03;;;-5.00;99.90;;;;;;5035975;28;20124;-76
2024/01/10 02:49:49;;;;;;;6.00;2.85;;;-5.00;99.90;;;;;;5013586;28;20080;-76
2024/01/10 02:52:21;;;;;;;6.63;2.95;;;-5.00;99.90;;;;;;5017207;28;20045;-76
2024/01/10 02:54:47;;;;;;;4.80;4.03;;;-5.00;99.90;;;;;;5018436;28;20046;-76
2024/01/10 02:57:13;;;;;;;5.38;2.78;;;-4.90;99.90;;;;;;5014585;28;20052;-76
2024/01/10 02:59:39;;;;;;;3.88;2.70;;;-4.90;99.90;;;;;;5016603;28;20071;-76
2024/01/10 03:02:05;;;;;;;7.72;3.70;;;-4.90;99.90;;;;;;5014487;28;20120;-76
2024/01/10 03:04:30;;;;;;;8.35;4.07;;;-4.90;99.90;;;;;;5010074;28;20052;-76
2024/01/10 03:06:56;;;;;;;4.85;3.15;;;-4.90;99.90;;;;;;5016322;28;20470;-76
2024/01/10 03:09:23;;;;;;;4.13;2.40;;;-4.90;99.90;;;;;;5001474;28;20049;-76
2024/01/10 03:11:49;;;;;;;4.40;3.20;;;-4.80;99.90;;;;;;5017969;28;20069;-75
2024/01/10 03:14:22;;;;;;;3.40;3.03;;;-4.90;99.90;;;;;;5004549;28;20096;-75
2024/01/10 03:16:54;;;;;;;3.08;2.20;;;-4.80;99.90;;;;;;4982979;28;20053;-76
2024/01/10 03:19:20;;;;;;;5.70;2.90;;;-4.80;99.90;;;;;;4997534;28;20482;-75
2024/01/10 03:21:45;;;;;;;4.47;3.30;;;-4.80;99.90;;;;;;4995503;28;20034;-75
2024/01/10 03:24:11;;;;;;;7.88;4.57;;;-4.80;99.90;;;;;;4990346;28;20119;-75
2024/01/10 03:26:37;;;;;;;6.38;3.05;;;-4.80;99.90;;;;;;5009273;28;20045;-75
2024/01/10 03:29:03;;;;;;;5.57;3.22;;;-4.80;99.90;;;;;;4997864;28;20042;-75
2024/01/10 03:31:32;;;;;;;6.32;3.28;;;-4.80;99.90;;;;;;4997666;28;20048;-75
2024/01/10 03:34:51;;;;;;;6.40;3.30;;;-4.80;99.90;;;;;;5001807;28;20474;-75
2024/01/10 03:37:17;;;;;;;7.75;4.38;;;-4.80;99.90;;;;;;5016701;28;20058;-75
2024/01/10 03:39:42;;;;;;;10.80;4.10;;;-4.80;99.90;;;;;;5006750;28;20531;-74
2024/01/10 03:42:08;;;;;;;7.00;3.75;;;-4.80;99.90;;;;;;5001707;28;20506;-75
2024/01/10 03:44:34;;;;;;;7.20;3.80;;;-4.80;99.90;;;;;;5002184;28;20049;-75
2024/01/10 03:47:00;;;;;;;7.18;4.43;;;-4.80;99.90;;;;;;5004449;28;20042;-75
2024/01/10 03:49:26;;;;;;;5.10;3.30;;;-4.80;99.90;;;;;;4999468;28;20212;-74
2024/01/10 03:51:51;;;;;;;5.25;3.58;;;-4.80;99.90;;;;;;4982434;28;20045;-74
2024/01/10 03:54:17;;;;;;;6.63;3.00;;;-4.80;99.90;;;;;;4997349;28;20041;-74
2024/01/10 03:56:43;;;;;;;6.82;4.25;;;-4.80;99.90;;;;;;4992888;28;20465;-74
2024/01/10 03:59:09;;;;;;;10.68;4.28;;;-4.80;99.90;;;;;;5001408;28;20048;-74
2024/01/10 04:01:38;;;;;;;6.15;2.60;;;-4.80;99.90;;;;;;5001621;28;20493;-74
2024/01/10 04:04:05;;;;;;;4.68;3.03;;;-4.80;99.90;;;;;;4981942;28;20034;-74
2024/01/10 04:06:31;;;;;;;8.63;2.83;;;-4.80;99.90;;;;;;4996433;28;20049;-74
2024/01/10 04:08:56;;;;;;;5.10;3.35;;;-4.80;99.90;;;;;;4996876;28;20088;-74
2024/01/10 04:11:22;;;;;;;6.82;3.97;;;-4.80;99.90;;;;;;4996853;28;20050;-74
2024/01/10 04:13:54;;;;;;;6.18;2.95;;;-4.80;99.90;;;;;;5033356;28;20521;-74
2024/01/10 04:16:27;;;;;;;2.92;2.40;;;-4.80;99.90;;;;;;5016171;28;20120;-74
2024/01/10 04:18:53;;;;;;;5.78;3.45;;;-4.80;99.90;;;;;;5016037;28;20038;-74
2024/01/10 04:21:19;;;;;;;6.75;3.28;;;-4.80;99.90;;;;;;5016175;28;20034;-73
2024/01/10 04:23:44;;;;;;;9.05;3.05;;;-4.70;99.90;;;;;;5016077;28;20053;-73
2024/01/10 04:26:10;;;;;;;7.18;3.17;;;-4.70;99.90;;;;;;5015310;28;20056;-74
2024/01/10 04:28:39;;;;;;;5.75;2.85;;;-4.70;99.90;;;;;;5003508;28;20036;-73
2024/01/10 04:31:04;;;;;;;5.05;2.50;;;-4.70;99.90;;;;;;5016385;28;20429;-73
2024/01/10 04:33:30;;;;;;;9.00;3.08;;;-4.70;99.90;;;;;;5028241;28;20046;-73
2024/01/10 04:35:56;;;;;;;7.65;5.05;;;-4.70;99.90;;;;;;5016042;28;20045;-73
2024/01/10 04:38:25;;;;;;;5.85;3.40;;;-4.70;99.90;;;;;;4995246;28;20104;-73
2024/01/10 04:40:51;;;;;;;4.70;3.50;;;-4.70;99.90;;;;;;5017376;28;20052;-73
2024/01/10 04:43:17;;;;;;;3.22;2.72;;;-4.80;99.90;;;;;;5020388;28;20033;-73
2024/01/10 04:45:43;;;;;;;5.22;3.08;;;-4.70;99.90;;;;;;5015250;28;20060;-73
2024/01/10 04:48:21;;;;;;;5.20;3.40;;;-4.70;99.90;;;;;;5016035;28;20044;-73
2024/01/10 04:50:47;;;;;;;6.53;3.25;;;-4.70;99.90;;;;;;5017079;28;20640;-73
2024/01/10 04:53:12;;;;;;;4.68;3.67;;;-4.80;99.90;;;;;;5015776;28;20121;-73
2024/01/10 04:55:38;;;;;;;5.45;3.28;;;-4.80;99.90;;;;;;5017309;28;20493;-73
2024/01/10 04:58:04;;;;;;;5.80;2.45;;;-4.70;99.90;;;;;;5015387;28;20112;-73
2024/01/10 05:00:30;;;;;;;5.65;2.95;;;-4.70;99.90;;;;;;5018829;28;20045;-73
2024/01/10 05:02:56;;;;;;;8.32;3.88;;;-4.70;99.90;;;;;;5015786;28;20096;-73
2024/01/10 05:05:23;;;;;;;9.43;4.55;;;-4.60;99.90;;;;;;5015391;28;20072;-73
2024/01/10 05:07:50;;;;;;;4.00;3.05;;;-4.70;99.90;;;;;;5015430;28;20548;-73
2024/01/10 05:10:16;;;;;;;6.40;3.47;;;-4.60;99.90;;;;;;5015104;28;20084;-73
2024/01/10 05:12:42;;;;;;;8.35;3.83;;;-4.60;99.90;;;;;;5014863;28;20075;-73
2024/01/10 05:15:08;;;;;;;10.55;2.88;;;-4.60;99.90;;;;;;5015257;28;20053;-72
2024/01/10 05:17:40;;;;;;;4.60;2.47;;;-4.60;99.90;;;;;;5014719;28;20501;-73
2024/01/10 05:20:06;;;;;;;4.90;2.30;;;-4.60;99.90;;;;;;5014338;28;20033;-72
2024/01/10 05:22:42;;;;;;;6.38;2.83;;;-4.70;99.90;;;;;;5031387;28;20060;-73
2024/01/10 05:25:08;;;;;;;6.60;3.47;;;-4.70;99.90;;;;;;5014750;28;20117;-73
2024/01/10 05:27:34;;;;;;;7.22;2.35;;;-4.70;99.90;;;;;;5017701;28;20120;-72
2024/01/10 05:30:00;;;;;;;4.25;3.13;;;-4.70;99.90;;;;;;5015907;28;20663;-73
2024/01/10 05:32:26;;;;;;;5.90;3.78;;;-4.70;99.90;;;;;;5014209;28;20045;-73
2024/01/10 05:34:53;;;;;;;4.70;3.53;;;-4.70;99.90;;;;;;5006539;28;20124;-72
2024/01/10 05:37:19;;;;;;;4.95;3.55;;;-4.70;99.90;;;;;;5030630;28;20461;-72
2024/01/10 05:39:45;;;;;;;7.88;3.75;;;-4.70;99.90;;;;;;5012572;28;20132;-72
2024/01/10 05:42:11;;;;;;;2.58;1.90;;;-4.70;99.90;;;;;;5028708;28;20037;-72
2024/01/10 05:44:50;;;;;;;5.13;3.00;;;-4.70;99.90;;;;;;5019799;28;20047;-72
2024/01/10 05:47:23;;;;;;;4.40;3.33;;;-4.70;99.90;;;;;;5014173;28;20052;-72
2024/01/10 05:49:55;;;;;;;4.43;2.70;;;-4.70;99.90;;;;;;5014474;28;20444;-72
2024/01/10 05:52:22;;;;;;;4.88;3.22;;;-4.70;99.90;;;;;;4998556;28;20049;-72
2024/01/10 05:54:48;;;;;;;4.57;3.47;;;-4.80;99.90;;;;;;5000266;28;20036;-72
2024/01/10 05:57:14;;;;;;;6.40;4.00;;;-4.80;99.90;;;;;;5016926;28;20041;-72
2024/01/10 05:59:40;;;;;;;5.25;3.70;;;-4.80;99.90;;;;;;5017673;28;20136;-73
2024/01/10 06:02:06;;;;;;;6.78;2.58;;;-4.80;99.90;;;;;;5030836;28;20545;-73
2024/01/10 06:04:32;;;;;;;10.35;4.30;;;-4.70;99.90;;;;;;5005901;28;20381;-73
2024/01/10 06:06:59;;;;;;;7.30;2.90;;;-4.70;99.90;;;;;;5006338;28;20064;-73
2024/01/10 06:09:24;;;;;;;4.32;2.35;;;-4.70;99.90;;;;;;5017677;28;20042;-74
2024/01/10 06:11:50;;;;;;;3.95;2.53;;;-4.70;99.90;;;;;;5025763;28;20060;-74
2024/01/10 06:14:23;;;;;;;4.30;2.55;;;-4.70;99.90;;;;;;5017410;28;20068;-74
2024/01/10 06:16:59;;;;;;;5.97;4.35;;;-4.80;99.90;;;;;;5013807;28;20041;-74
2024/01/10 06:19:25;;;;;;;7.70;2.95;;;-4.80;99.90;;;;;;5014961;28;20049;-74
2024/01/10 06:21:52;;;;;;;11.30;3.88;;;-4.80;99.90;;;;;;5032789;28;20564;-74
2024/01/10 06:24:18;;;;;;;4.32;2.15;;;-4.90;99.90;;;;;;5013899;28;20113;-74
2024/01/10 06:26:43;;;;;;;9.05;2.60;;;-4.90;99.90;;;;;;5028956;28;20037;-74
2024/01/10 06:29:09;;;;;;;5.80;3.08;;;-4.90;99.90;;;;;;5025404;28;20450;-74
2024/01/10 06:31:35;;;;;;;6.03;2.05;;;-5.00;99.90;;;;;;5009877;28;20049;-74
2024/01/10 06:34:01;;;;;;;3.45;2.60;;;-5.00;99.90;;;;;;5013945;28;20045;-74
2024/01/10 06:36:26;;;;;;;6.38;2.90;;;-5.00;99.90;;;;;;5008459;28;20046;-74
2024/01/10 06:38:52;;;;;;;4.97;2.83;;;-5.00;99.90;;;;;;5023967;28;20052;-74
2024/01/10 06:41:24;;;;;;;4.72;2.40;;;-4.90;99.90;;;;;;5012878;28;20041;-74
2024/01/10 06:43:51;;;;;;;3.50;2.22;;;-4.90;99.90;;;;;;5024730;28;20478;-74
2024/01/10 06:46:17;;;;;;;6.68;3.75;;;-4.90;99.90;;;;;;5033693;28;20048;-74
2024/01/10 06:48:42;;;;;;;3.92;2.35;;;-4.90;99.90;;;;;;5032235;28;20730;-74
2024/01/10 06:51:15;;;;;;;6.07;3.40;;;-4.90;99.90;;;;;;5012819;28;20080;-74
2024/01/10 06:53:41;;;;;;;4.82;2.85;;;-4.90;99.90;;;;;;5014669;28;20492;-74
2024/01/10 06:56:07;;;;;;;5.70;2.50;;;-4.90;99.90;;;;;;5009265;28;20071;-74
2024/01/10 06:58:33;;;;;;;4.57;2.67;;;-4.90;99.90;;;;;;5013212;28;20052;-74
2024/01/10 07:01:04;;;;;;;4.00;3.00;;;-4.90;99.90;;;;;;5013365;28;20042;-74
2024/01/10 07:03:40;;;;;;;3.80;3.45;;;-4.90;99.90;;;;;;5010769;28;20053;-72
2024/01/10 07:06:06;;;;;;;3.50;2.58;;;-4.90;99.90;;;;;;5026831;28;20051;-73
2024/01/10 07:08:31;;;;;;;6.47;2.42;;;-4.90;99.90;;;;;;5027301;28;20041;-73
2024/01/10 07:10:57;;;;;;;14.85;3.90;;;-4.90;99.90;;;;;;4996899;28;20175;-73
2024/01/10 07:13:23;;;;;;;6.20;2.17;;;-4.80;99.90;;;;;;5021181;28;20120;-73
2024/01/10 07:16:02;;;;;;;5.22;3.33;;;-4.80;99.90;;;;;;5013040;28;20050;-74
2024/01/10 07:18:29;;;;;;;7.43;3.58;;;-4.80;99.90;;;;;;5013612;28;20060;-73
2024/01/10 07:20:55;;;;;;;2.80;2.33;;;-4.80;99.90;;;;;;5009152;28;20129;-73
2024/01/10 07:23:22;;;;;;;11.05;4.03;;;-4.70;99.90;;;;;;5011896;28;20139;-73
2024/01/10 07:25:48;;;;;;;3.05;1.70;;;-4.60;99.90;;;;;;5004372;28;20037;-73
2024/01/10 07:28:14;;;;;;;3.85;1.70;;;-4.60;99.90;;;;;;5017464;28;20704;-73
2024/01/10 07:30:40;;;;;;;7.65;3.55;;;-4.60;99.90;;;;;;5029673;28;20038;-73
2024/01/10 07:33:06;;;;;;;4.95;1.65;;;-4.60;99.90;;;;;;5007255;28;20052;-73
2024/01/10 07:35:32;;;;;;;3.75;2.45;;;-4.60;99.90;;;;;;5013349;28;20048;-73
2024/01/10 07:37:58;;;;;;;6.68;2.13;;;-4.60;99.90;;;;;;5016948;28;20041;-73
2024/01/10 07:40:24;;;;;;;4.22;2.97;;;-4.50;99.90;;;;;;5011977;28;20104;-73
2024/01/10 07:42:50;;;;;;;3.70;2.63;;;-4.50;99.90;;;;;;5012138;28;20543;-74
2024/01/10 07:45:15;;;;;;;2.22;2.03;;;-4.50;99.90;;;;;;5012996;28;20169;-73
2024/01/10 07:47:41;;;;;;;7.22;3.00;;;-4.50;99.90;;;;;;5004067;28;20041;-74
2024/01/10 07:50:14;;;;;;;1.63;1.38;;;-4.50;99.90;;;;;;5012565;28;20041;-74
2024/01/10 07:52:40;;;;;;;4.22;2.95;;;-4.40;99.90;;;;;;5015206;28;20450;-74
2024/01/10 07:55:08;;;;;;;2.78;1.88;;;-4.40;99.90;;;;;;5010553;28;20461;-74
2024/01/10 07:57:34;;;;;;;3.60;2.53;;;-4.40;99.90;;;;;;5013019;28;20484;-74
2024/01/10 08:00:00;;;;;;;4.22;2.83;;;-4.40;99.90;;;;;;5015243;28;20073;-74
2024/01/10 08:02:25;;;;;;;4.45;2.95;;;-4.40;99.90;;;;;;5007488;28;20095;-74
2024/01/10 08:04:52;;;;;;;3.72;1.65;;;-4.40;99.90;;;;;;5008555;28;20507;-74
2024/01/10 08:07:24;;;;;;;6.10;1.67;;;-4.40;99.90;;;;;;5007414;28;20378;-74
2024/01/10 08:09:52;;;;;;;7.70;2.42;;;-4.30;99.90;;;;;;5027045;28;20049;-74
2024/01/10 08:12:18;;;;;;;4.45;2.78;;;-4.30;99.90;;;;;;5010926;28;20037;-74
2024/01/10 08:14:51;;;;;;;4.43;2.67;;;-4.30;99.90;;;;;;5009569;28;20570;-75
2024/01/10 08:17:17;;;;;;;7.28;4.07;;;-4.20;99.90;;;;;;5025409;28;20129;-75
2024/01/10 08:19:43;;;;;;;8.07;3.38;;;-4.10;99.90;;;;;;5016398;28;20057;-75
2024/01/10 08:22:10;;;;;;;5.93;3.42;;;-4.10;99.90;;;;;;5003688;28;20037;-77
2024/01/10 08:24:36;;;;;;;7.38;2.97;;;-4.00;99.90;;;;;;5025509;28;20509;-75
2024/01/10 08:27:02;;;;;;;4.55;2.22;;;-3.80;99.90;;;;;;5021392;28;20048;-75
2024/01/10 08:29:31;;;;;;;4.07;2.88;;;-3.70;99.90;;;;;;5000607;28;20524;-75
2024/01/10 08:31:57;;;;;;;6.03;3.63;;;-3.50;99.90;;;;;;5023219;28;20140;-75
2024/01/10 08:34:24;;;;;;;14.20;4.00;;;-3.40;99.90;;;;;;4999752;28;20588;-75
2024/01/10 08:36:51;;;;;;;4.72;2.95;;;-3.30;99.90;;;;;;5027121;28;20044;-75
2024/01/10 08:39:17;;;;;;;3.30;2.70;;;-3.00;99.90;;;;;;5023445;28;20041;-75
2024/01/10 08:41:44;;;;;;;4.90;3.53;;;-2.70;99.90;;;;;;5023131;28;20051;-75
2024/01/10 08:44:13;;;;;;;10.25;4.30;;;-2.40;99.90;;;;;;5027865;28;20052;-76
2024/01/10 08:46:39;;;;;;;6.63;3.45;;;-2.00;99.90;;;;;;5023615;28;20037;-76
2024/01/10 08:49:05;;;;;;;8.10;4.30;;;-1.30;99.90;;;;;;5019821;28;20094;-75
2024/01/10 08:51:31;;;;;;;11.52;5.07;;;-0.70;99.90;;;;;;4998769;28;20046;-76
2024/01/10 08:53:57;;;;;;;15.90;5.75;;;-0.30;99.90;;;;;;5019006;28;20033;-75
2024/01/10 08:56:23;;;;;;;15.80;7.07;;;-0.10;99.90;;;;;;5027002;28;20555;-75
2024/01/10 08:58:49;;;;;;;24.27;5.82;;;0.10;99.90;;;;;;5018627;28;20045;-75
2024/01/10 09:01:15;;;;;;;39.90;13.05;;;0.60;99.90;;;;;;5005195;28;20051;-74
2024/01/10 09:03:41;;;;;;;67.72;19.77;;;1.20;99.90;;;;;;5020785;28;20048;-74
2024/01/10 09:06:10;;;;;;;13.30;8.70;;;1.70;99.90;;;;;;5046273;28;20040;-74
2024/01/10 09:08:36;;;;;;;8.43;5.53;;;2.10;99.90;;;;;;5012494;28;20440;-74
2024/01/10 09:11:03;;;;;;;11.82;5.80;;;2.70;99.90;;;;;;5034469;28;20087;-74
2024/01/10 09:13:28;;;;;;;8.00;4.50;;;3.20;99.90;;;;;;5028259;28;20124;-74
2024/01/10 09:16:07;;;;;;;8.38;4.75;;;3.70;99.90;;;;;;4995409;28;20565;-74
2024/01/10 09:18:33;;;;;;;9.07;5.05;;;3.90;99.90;;;;;;4980557;28;20054;-74
2024/01/10 09:20:59;;;;;;;6.45;3.72;;;4.20;99.90;;;;;;5002869;28;20049;-74
2024/01/10 09:23:27;;;;;;;8.73;5.15;;;4.10;99.90;;;;;;5027366;28;20064;-75
2024/01/10 09:25:53;;;;;;;6.63;4.65;;;4.00;99.90;;;;;;5005928;28;20041;-76
2024/01/10 09:28:19;;;;;;;8.07;4.85;;;4.10;99.90;;;;;;4998204;28;20049;-76
2024/01/10 09:30:45;;;;;;;5.82;3.15;;;4.30;99.90;;;;;;5002854;28;20060;-77
2024/01/10 09:33:10;;;;;;;14.10;5.55;;;4.60;99.90;;;;;;5003927;28;20486;-77
2024/01/10 09:35:36;;;;;;;11.90;4.75;;;4.60;99.90;;;;;;4996410;28;20469;-78
2024/01/10 09:38:02;;;;;;;8.82;4.35;;;4.90;99.90;;;;;;5022175;28;20044;-79
2024/01/10 09:40:29;;;;;;;12.10;4.32;;;5.30;99.90;;;;;;4989279;28;20038;-80
2024/01/10 09:42:55;;;;;;;9.45;5.20;;;5.60;99.90;;;;;;4973150;28;20037;-81
2024/01/10 09:45:22;;;;;;;11.90;5.00;;;5.40;99.90;;;;;;5006297;28;20593;-82
2024/01/10 09:47:52;;;;;;;9.15;5.47;;;5.30;99.90;;;;;;4988522;28;20042;-85
2024/01/10 09:50:18;;;;;;;8.02;4.53;;;5.50;99.90;;;;;;5005533;28;20121;-85
2024/01/10 09:52:53;;;;;;;9.63;4.43;;;5.70;99.90;;;;;;5004831;28;20046;-83
2024/01/10 09:55:23;;;;;;;10.75;5.20;;;5.80;99.90;;;;;;5008593;28;20053;-83
2024/01/10 09:57:49;;;;;;;12.55;4.63;;;5.90;99.90;;;;;;5004261;28;20042;-83
2024/01/10 10:00:16;;;;;;;6.53;3.95;;;6.20;99.90;;;;;;5002941;28;20049;-84
2024/01/10 10:02:42;;;;;;;9.80;5.82;;;6.40;99.90;;;;;;5008482;28;20042;-85
2024/01/10 10:05:15;;;;;;;10.00;5.07;;;6.40;99.90;;;;;;4986582;28;21085;-82
2024/01/10 10:07:45;;;;;;;13.82;6.35;;;6.10;99.90;;;;;;5007878;28;20088;-83
2024/01/10 10:10:12;;;;;;;;;;;5.70;98.00;;;;;;5002656;28;20072;-84
2024/01/10 10:12:53;;;;;;;10.20;4.97;;;5.50;99.60;;;;;;5002868;28;19918;-84
2024/01/10 10:15:26;;;;;;;8.38;4.75;;;5.30;98.70;;;;;;5017029;28;20061;-81
2024/01/10 10:17:53;;;;;;;10.40;4.93;;;5.30;96.30;;;;;;5005934;28;20045;-77
2024/01/10 10:20:27;;;;;;;9.73;4.07;;;5.60;97.00;;;;;;5022584;28;20050;-85
2024/01/10 10:23:01;;;;;;;10.82;5.53;;;6.00;99.90;;;;;;5003794;28;20556;-80
2024/01/10 10:25:48;;;;;;;10.30;5.30;;;6.30;97.80;;;;;;4993561;28;20097;-79
2024/01/10 10:28:15;;;;;;;10.35;5.25;;;6.60;97.50;;;;;;5010167;28;20041;-77
2024/01/10 10:30:40;;;;;;;7.70;4.35;;;6.70;97.30;;;;;;5006776;28;20041;-78
2024/01/10 10:33:09;;;;;;;11.25;4.93;;;6.70;96.00;;;;;;5004257;28;20478;-78
2024/01/10 10:35:38;;;;;;;12.55;5.35;;;7.10;94.80;;;;;;5006400;28;20393;-79
2024/01/10 10:38:04;;;;;;;9.52;4.53;;;7.60;94.20;;;;;;5005871;28;20038;-79
2024/01/10 10:40:29;;;;;;;9.35;4.97;;;7.90;92.10;;;;;;5007680;28;20045;-77
2024/01/10 10:42:56;;;;;;;9.40;4.30;;;8.20;91.70;;;;;;5026116;28;20050;-78
2024/01/10 10:45:26;;;;;;;;;;;8.60;96.30;;;;;;5006407;28;20091;-76
2024/01/10 10:47:59;;;;;;;7.22;4.22;;;8.50;84.60;;;;;;5007461;28;19963;-75
2024/01/10 10:50:36;;;;;;;9.88;4.97;;;8.50;90.70;;;;;;5021066;28;20033;-77
2024/01/10 10:53:03;;;;;;;11.57;5.32;;;8.50;91.10;;;;;;5009527;28;20100;-76
2024/01/10 10:55:30;;;;;;;10.55;4.75;;;8.70;86.20;;;;;;5023815;28;20052;-76
2024/01/10 10:57:58;;;;;;;13.27;4.80;;;9.00;84.10;;;;;;5024467;28;20044;-75
2024/01/10 11:00:27;;;;;;;9.18;3.67;;;9.10;90.00;;;;;;5025711;28;20048;-74
2024/01/10 11:02:59;;;;;;;10.93;5.22;;;9.20;89.70;;;;;;5006700;28;20033;-74
2024/01/10 11:05:27;;;;;;;11.80;4.32;;;8.80;89.40;;;;;;5007825;28;20041;-74
2024/01/10 11:07:53;;;;;;;10.15;4.70;;;8.60;84.10;;;;;;5007265;28;20374;-72
2024/01/10 11:10:24;;;;;;;10.50;4.45;;;8.70;87.10;;;;;;5007861;28;20041;-73
2024/01/10 11:13:28;;;;;;;8.30;4.05;;;8.80;80.30;;;;;;5021609;28;20047;-72
2024/01/10 11:16:15;;;;;;;8.27;4.18;;;8.90;80.60;;;;;;4968988;28;20085;-73
2024/01/10 11:18:57;;;;;;;12.00;4.65;;;8.90;80.70;;;;;;4985087;28;20865;-72
2024/01/10 11:21:47;;;;;;;6.32;3.60;;;9.00;79.50;;;;;;4988613;28;20383;-72
2024/01/10 11:24:13;;;;;;;8.50;4.40;;;8.50;77.40;;;;;;4981645;28;20042;-72
2024/01/10 11:26:39;;;;;;;10.07;4.45;;;8.10;79.30;;;;;;4981112;28;20449;-72
2024/01/10 11:29:06;;;;;;;9.55;3.85;;;8.10;80.10;;;;;;4987810;28;20090;-72
2024/01/10 11:31:32;;;;;;;10.00;4.32;;;7.80;82.30;;;;;;4989604;28;20181;-72
2024/01/10 11:34:00;;;;;;;7.65;3.90;;;7.60;83.40;;;;;;5006115;28;20037;-72
2024/01/10 11:36:27;;;;;;;9.38;3.00;;;7.50;80.60;;;;;;4991960;28;20413;-71
2024/01/10 11:38:53;;;;;;;8.82;3.75;;;7.30;84.80;;;;;;5009646;28;20108;-72
2024/01/10 11:41:30;;;;;;;9.65;3.45;;;6.70;84.80;;;;;;4991530;28;20364;-72
2024/01/10 11:44:11;;;;;;;9.63;3.30;;;6.40;82.40;;;;;;4992665;28;20073;-71
2024/01/10 11:46:52;;;;;;;7.53;3.60;;;6.50;85.50;;;;;;4992371;28;20041;-71
2024/01/10 11:49:19;;;;;;;8.73;3.67;;;6.50;88.30;;;;;;4991031;28;20045;-72
2024/01/10 11:51:54;;;;;;;7.93;3.65;;;6.40;88.00;;;;;;4992676;28;20133;-71
2024/01/10 11:54:43;;;;;;;8.90;3.55;;;5.80;88.60;;;;;;4975205;28;20489;-71
2024/01/10 11:57:16;;;;;;;7.22;3.47;;;5.30;83.00;;;;;;4990718;28;20041;-71
2024/01/10 11:59:46;;;;;;;8.25;3.72;;;5.30;86.60;;;;;;4991679;28;20041;-71
2024/01/10 12:02:13;;;;;;;9.60;4.13;;;5.50;90.20;;;;;;4990421;28;20050;-71
2024/01/10 12:04:39;;;;;;;8.48;3.33;;;5.50;84.60;;;;;;4990950;28;20073;-71
2024/01/10 12:07:07;;;;;;;9.68;3.53;;;5.50;89.10;;;;;;4991588;28;20030;-71
2024/01/10 12:09:34;;;;;;;9.18;3.45;;;5.40;85.90;;;;;;5008548;28;20049;-71
2024/01/10 12:12:00;;;;;;;10.38;3.55;;;5.40;89.20;;;;;;4990318;28;20034;-70
2024/01/10 12:14:33;;;;;;;7.18;3.30;;;5.10;86.10;;;;;;4995771;28;20123;-70
2024/01/10 12:17:08;;;;;;;6.40;2.38;;;4.70;87.50;;;;;;5009664;28;20045;-70
2024/01/10 12:19:37;;;;;;;8.88;3.05;;;4.30;85.90;;;;;;5011600;28;20041;-70
2024/01/10 12:22:05;;;;;;;5.33;2.47;;;3.80;88.40;;;;;;5006363;28;20029;-70
2024/01/10 12:24:31;;;;;;;6.95;3.08;;;3.40;91.30;;;;;;5007480;28;20048;-70
2024/01/10 12:26:58;;;;;;;6.32;2.70;;;3.10;91.80;;;;;;5009739;28;20044;-70
2024/01/10 12:29:25;;;;;;;10.48;3.22;;;2.90;92.10;;;;;;5009898;28;20067;-70
2024/01/10 12:31:51;;;;;;;5.43;2.28;;;2.70;93.30;;;;;;5024769;28;20045;-70
2024/01/10 12:34:17;;;;;;;7.90;3.60;;;2.80;93.20;;;;;;5024504;28;20045;-71
2024/01/10 12:36:43;;;;;;;10.70;4.07;;;3.10;92.50;;;;;;5009400;28;20037;-70
2024/01/10 12:39:10;;;;;;;12.75;4.10;;;3.40;93.00;;;;;;5009157;28;20045;-70
2024/01/10 12:41:36;;;;;;;8.60;4.18;;;3.50;91.70;;;;;;5009803;28;20034;-70
2024/01/10 12:44:03;;;;;;;6.45;3.10;;;3.30;92.20;;;;;;5011201;28;20119;-71
2024/01/10 12:46:31;;;;;;;8.10;3.03;;;2.90;91.70;;;;;;5008655;28;20156;-69
2024/01/10 12:49:04;;;;;;;8.18;2.92;;;2.70;91.40;;;;;;5010118;28;20037;-70
2024/01/10 12:51:31;;;;;;;9.00;3.50;;;2.50;92.20;;;;;;5009066;28;20055;-70